createdAt,value
2018-07-10T00:02:10.166Z,82.51
2018-07-10T00:06:55.636Z,82.77
2018-07-10T00:10:08.312Z,83.01
2018-07-10T00:12:37.225Z,83.65
2018-07-10T00:15:06.151Z,83.78
2018-07-10T00:17:35.036Z,83.92
2018-07-10T00:20:03.896Z,84.08
2018-07-10T00:22:32.804Z,84.22
2018-07-10T00:25:01.704Z,84.38
2018-07-10T00:27:30.678Z,84.37
2018-07-10T00:29:59.449Z,84.44
2018-07-10T00:32:28.453Z,84.71
2018-07-10T00:34:57.393Z,84.72
2018-07-10T00:37:26.360Z,85.05
2018-07-10T00:39:55.343Z,85.15
2018-07-10T00:42:24.200Z,85.03
2018-07-10T00:44:53.143Z,85.00
2018-07-10T00:47:22.085Z,85.12
2018-07-10T00:49:50.980Z,85.27
2018-07-10T00:52:29.554Z,85.09
2018-07-10T00:54:58.758Z,84.80
2018-07-10T00:57:27.712Z,84.92
2018-07-10T00:59:56.573Z,84.97
2018-07-10T01:02:25.598Z,84.89
2018-07-10T01:04:54.575Z,85.03
2018-07-10T01:07:23.932Z,84.92
2018-07-10T01:09:52.929Z,85.01
2018-07-10T01:12:21.802Z,84.97
2018-07-10T01:14:50.743Z,84.88
2018-07-10T01:17:19.896Z,84.99
2018-07-10T01:19:48.748Z,84.77
2018-07-10T01:22:17.668Z,84.98
2018-07-10T01:24:46.599Z,84.87
2018-07-10T01:27:15.422Z,85.07
2018-07-10T01:29:49.691Z,85.41
2018-07-10T01:32:18.644Z,85.42
2018-07-10T01:34:47.548Z,85.54
2018-07-10T01:37:16.399Z,85.82
2018-07-10T01:39:45.305Z,85.84
2018-07-10T01:42:14.168Z,85.87
2018-07-10T01:44:43.041Z,86.02
2018-07-10T01:47:12.024Z,86.21
2018-07-10T01:49:41.001Z,86.50
2018-07-10T01:52:09.831Z,86.56
2018-07-10T01:54:38.832Z,86.72
2018-07-10T01:57:07.715Z,86.87
2018-07-10T01:59:36.699Z,86.97
2018-07-10T02:02:05.494Z,86.92
2018-07-10T02:04:34.600Z,87.04
2018-07-10T02:07:03.765Z,87.58
2018-07-10T02:09:32.606Z,87.36
2018-07-10T02:12:01.487Z,87.67
2018-07-10T02:14:30.583Z,87.74
2018-07-10T02:16:59.495Z,88.29
2018-07-10T02:19:28.460Z,88.55
2018-07-10T02:21:57.323Z,89.15
2018-07-10T02:24:27.200Z,89.09
2018-07-10T02:26:56.270Z,89.18
2018-07-10T02:29:25.180Z,88.50
2018-07-10T02:31:54.078Z,88.73
2018-07-10T02:34:22.983Z,88.83
2018-07-10T02:36:51.875Z,88.73
2018-07-10T02:39:20.812Z,89.19
2018-07-10T02:41:49.836Z,89.19
2018-07-10T02:44:18.786Z,88.92
2018-07-10T02:46:47.664Z,88.87
2018-07-10T02:49:22.511Z,88.66
2018-07-10T02:51:54.570Z,88.81
2018-07-10T02:54:25.791Z,89.36
2018-07-10T02:56:56.385Z,89.69
2018-07-10T02:59:35.567Z,90.16
2018-07-10T03:02:05.782Z,90.27
2018-07-10T03:04:35.848Z,90.26
2018-07-10T03:07:05.085Z,89.97
2018-07-10T03:09:34.494Z,90.65
2018-07-10T03:12:04.660Z,90.79
2018-07-10T03:14:33.684Z,90.67
2018-07-10T03:17:02.962Z,90.91
2018-07-10T03:19:32.848Z,91.06
2018-07-10T03:22:02.091Z,91.65
2018-07-10T03:24:31.225Z,91.93
2018-07-10T03:27:00.227Z,91.98
2018-07-10T03:29:29.176Z,92.15
2018-07-10T03:31:58.189Z,92.05
2018-07-10T03:34:27.240Z,92.34
2018-07-10T03:36:56.136Z,92.36
2018-07-10T03:39:25.097Z,92.39
2018-07-10T03:41:54.068Z,92.28
2018-07-10T03:44:23.099Z,92.20
2018-07-10T03:46:53.142Z,91.78
2018-07-10T03:49:22.731Z,91.32
2018-07-10T03:51:53.449Z,91.73
2018-07-10T03:54:22.576Z,92.30
2018-07-10T03:56:51.610Z,92.37
2018-07-10T03:59:20.705Z,92.24
2018-07-10T04:01:49.591Z,92.26
2018-07-10T04:04:18.530Z,92.64
2018-07-10T04:06:47.548Z,92.27
2018-07-10T04:09:16.548Z,91.85
2018-07-10T04:11:48.983Z,91.13
2018-07-10T04:14:20.259Z,91.03
2018-07-10T04:16:49.161Z,90.97
2018-07-10T04:19:18.396Z,91.19
2018-07-10T04:21:55.239Z,91.10
2018-07-10T04:24:24.420Z,91.34
2018-07-10T04:27:29.933Z,91.35
2018-07-10T04:30:06.333Z,91.29
2018-07-10T04:32:37.244Z,91.18
2018-07-10T04:35:06.754Z,90.72
2018-07-10T04:37:36.173Z,90.34
2018-07-10T04:40:05.557Z,89.80
2018-07-10T04:42:45.912Z,89.16
2018-07-10T04:45:16.862Z,89.14
2018-07-10T04:47:53.581Z,89.35
2018-07-10T04:50:28.323Z,88.74
2018-07-10T04:53:07.235Z,88.81
2018-07-10T04:55:39.793Z,88.13
2018-07-10T04:58:17.896Z,87.69
2018-07-10T05:00:50.495Z,87.54
2018-07-10T05:03:20.585Z,87.58
2018-07-10T05:05:49.527Z,87.43
2018-07-10T05:08:20.266Z,87.99
2018-07-10T05:10:50.153Z,88.44
2018-07-10T05:13:19.096Z,88.18
2018-07-10T05:15:53.335Z,87.69
2018-07-10T05:18:22.338Z,87.65
2018-07-10T05:20:51.322Z,87.53
2018-07-10T05:23:20.434Z,86.22
2018-07-10T05:25:56.377Z,85.73
2018-07-10T05:28:25.873Z,85.41
2018-07-10T05:30:58.931Z,85.12
2018-07-10T05:33:28.201Z,85.11
2018-07-10T05:35:57.673Z,84.67
2018-07-10T05:38:34.952Z,83.17
2018-07-10T05:41:04.202Z,83.29
2018-07-10T05:43:33.601Z,82.75
2018-07-10T05:46:02.573Z,82.71
2018-07-10T05:48:31.483Z,82.49
2018-07-10T05:51:00.633Z,82.29
2018-07-10T05:53:29.502Z,82.50
2018-07-10T05:55:58.692Z,82.05
2018-07-10T05:58:27.697Z,78.99
2018-07-10T06:00:56.754Z,72.27
2018-07-10T06:03:25.631Z,68.75
2018-07-10T06:05:54.550Z,65.87
2018-07-10T06:08:23.454Z,61.75
2018-07-10T06:10:52.518Z,60.87
2018-07-10T06:13:21.805Z,63.80
2018-07-10T06:15:50.790Z,68.99
2018-07-10T06:18:19.796Z,70.70
2018-07-10T06:20:48.789Z,72.69
2018-07-10T06:23:20.608Z,73.36
2018-07-10T06:25:50.218Z,72.70
2018-07-10T06:28:26.117Z,73.31
2018-07-10T06:30:55.072Z,74.56
2018-07-10T06:33:28.029Z,75.58
2018-07-10T06:36:29.521Z,76.74
2018-07-10T06:39:16.052Z,77.54
2018-07-10T06:41:52.459Z,78.63
2018-07-10T06:44:21.940Z,78.77
2018-07-10T06:47:10.725Z,78.13
2018-07-10T06:49:39.833Z,76.46
2018-07-10T06:52:12.111Z,74.78
2018-07-10T06:54:49.980Z,74.40
2018-07-10T06:57:19.039Z,72.73
2018-07-10T06:59:48.039Z,73.09
2018-07-10T07:02:16.934Z,71.88
2018-07-10T07:04:45.897Z,71.23
2018-07-10T07:07:14.885Z,69.90
2018-07-10T07:09:43.766Z,68.88
2018-07-10T07:12:13.394Z,69.64
2018-07-10T07:14:42.310Z,66.34
2018-07-10T07:17:11.790Z,68.03
2018-07-10T07:19:40.692Z,66.28
2018-07-10T07:22:09.609Z,65.74
2018-07-10T07:24:38.561Z,63.61
2018-07-10T07:27:07.562Z,64.45
2018-07-10T07:29:36.776Z,63.86
2018-07-10T07:32:05.906Z,63.63
2018-07-10T07:34:34.850Z,62.33
2018-07-10T07:37:03.753Z,59.47
2018-07-10T07:39:33.158Z,57.81
2018-07-10T07:42:02.360Z,59.33
2018-07-10T07:44:31.382Z,57.94
2018-07-10T07:47:00.578Z,54.90
2018-07-10T07:49:31.145Z,55.68
2018-07-10T07:52:00.442Z,57.81
2018-07-10T07:54:29.830Z,58.70
2018-07-10T07:56:58.961Z,58.06
2018-07-10T07:59:28.065Z,59.19
2018-07-10T08:01:57.037Z,61.35
2018-07-10T08:04:25.978Z,60.85
2018-07-10T08:06:54.977Z,61.09
2018-07-10T08:09:23.987Z,58.41
2018-07-10T08:11:52.985Z,59.68
2018-07-10T08:14:22.148Z,61.41
2018-07-10T08:16:51.239Z,63.99
2018-07-10T08:19:21.377Z,62.53
2018-07-10T08:21:52.147Z,61.01
2018-07-10T08:24:23.608Z,59.05
2018-07-10T08:26:55.535Z,58.87
2018-07-10T08:29:25.460Z,57.51
2018-07-10T08:31:55.042Z,57.59
2018-07-10T08:34:25.397Z,59.20
2018-07-10T08:36:54.458Z,59.59
2018-07-10T08:39:23.458Z,58.56
2018-07-10T08:41:53.109Z,59.43
2018-07-10T08:44:22.574Z,59.47
2018-07-10T08:46:56.466Z,59.64
2018-07-10T08:49:28.807Z,59.72
2018-07-10T08:51:57.897Z,59.94
2018-07-10T08:54:26.956Z,57.40
2018-07-10T08:56:56.069Z,55.55
2018-07-10T08:59:25.183Z,53.99
2018-07-10T09:01:54.328Z,55.80
2018-07-10T09:04:23.385Z,57.61
2018-07-10T09:06:52.609Z,58.13
2018-07-10T09:09:21.657Z,57.93
2018-07-10T09:11:51.183Z,56.56
2018-07-10T09:14:20.213Z,53.84
2018-07-10T09:16:49.317Z,53.46
2018-07-10T09:19:20.236Z,51.81
2018-07-10T09:21:59.324Z,51.73
2018-07-10T09:24:28.532Z,51.74
2018-07-10T09:26:57.628Z,52.65
2018-07-10T09:29:26.726Z,52.82
2018-07-10T09:31:56.549Z,50.87
2018-07-10T09:34:25.656Z,47.20
2018-07-10T09:36:54.687Z,47.29
2018-07-10T09:39:23.834Z,48.66
2018-07-10T09:41:52.968Z,50.77
2018-07-10T09:44:22.086Z,51.11
2018-07-10T09:46:51.223Z,52.63
2018-07-10T09:49:20.319Z,50.41
2018-07-10T09:51:49.476Z,53.70
2018-07-10T09:54:18.756Z,55.06
2018-07-10T09:56:47.692Z,56.18
2018-07-10T09:59:16.773Z,58.50
2018-07-10T10:01:45.787Z,61.07
2018-07-10T10:04:14.836Z,62.07
2018-07-10T10:06:44.252Z,61.69
2018-07-10T10:09:13.292Z,60.69
2018-07-10T10:11:42.388Z,59.19
2018-07-10T10:14:11.465Z,59.15
2018-07-10T10:16:41.374Z,60.42
2018-07-10T10:19:10.780Z,61.06
2018-07-10T10:21:39.884Z,57.88
2018-07-10T10:24:09.006Z,58.90
2018-07-10T10:26:38.064Z,57.23
2018-07-10T10:29:07.145Z,57.48
2018-07-10T10:31:36.220Z,57.36
2018-07-10T10:34:05.260Z,57.01
2018-07-10T10:36:34.184Z,57.48
2018-07-10T10:39:03.281Z,56.28
2018-07-10T10:41:32.351Z,54.69
2018-07-10T10:44:01.258Z,55.59
2018-07-10T10:46:30.168Z,55.19
2018-07-10T10:48:59.231Z,54.93
2018-07-10T10:51:28.275Z,55.49
2018-07-10T10:53:57.304Z,52.44
2018-07-10T10:56:26.357Z,51.69
2018-07-10T10:58:55.640Z,49.69
2018-07-10T11:01:25.017Z,51.64
2018-07-10T11:03:54.081Z,51.24
2018-07-10T11:06:23.391Z,49.24
2018-07-10T11:08:52.600Z,50.07
2018-07-10T11:11:21.657Z,49.64
2018-07-10T11:13:50.824Z,49.88
2018-07-10T11:16:19.820Z,50.73
2018-07-10T11:18:56.640Z,50.23
2018-07-10T11:22:32.545Z,52.68
2018-07-10T11:25:05.650Z,52.49
2018-07-10T11:27:46.277Z,50.88
2018-07-10T11:30:15.476Z,51.02
2018-07-10T11:32:44.508Z,50.25
2018-07-10T11:35:13.557Z,46.88
2018-07-10T11:37:42.645Z,47.38
2018-07-10T11:40:11.731Z,49.09
2018-07-10T11:42:40.786Z,47.50
2018-07-10T11:45:09.937Z,49.13
2018-07-10T11:47:38.936Z,49.36
2018-07-10T11:50:08.028Z,51.38
2018-07-10T11:52:38.599Z,50.58
2018-07-10T11:55:08.197Z,51.23
2018-07-10T11:57:37.242Z,50.84
2018-07-10T12:00:06.380Z,50.92
2018-07-10T12:02:44.232Z,48.09
2018-07-10T12:05:14.521Z,45.37
2018-07-10T12:07:46.080Z,46.12
2018-07-10T12:10:23.540Z,45.61
2018-07-10T12:12:53.228Z,46.20
2018-07-10T12:15:22.754Z,46.92
2018-07-10T12:17:55.844Z,47.37
2018-07-10T12:20:31.349Z,47.82
2018-07-10T12:23:01.337Z,49.37
2018-07-10T12:25:36.482Z,50.68
2018-07-10T12:28:06.444Z,52.16
2018-07-10T12:30:35.676Z,52.05
2018-07-10T12:33:05.396Z,53.65
2018-07-10T12:35:34.476Z,51.86
2018-07-10T12:38:03.520Z,52.89
2018-07-10T12:40:32.972Z,53.00
2018-07-10T12:43:02.009Z,52.68
2018-07-10T12:45:31.006Z,52.72
2018-07-10T12:48:00.364Z,53.37
2018-07-10T12:50:29.519Z,53.21
2018-07-10T12:52:58.481Z,53.09
2018-07-10T12:55:27.926Z,52.12
2018-07-10T12:57:57.359Z,52.58
2018-07-10T13:00:29.154Z,51.58
2018-07-10T13:02:58.192Z,51.87
2018-07-10T13:05:30.163Z,51.84
2018-07-10T13:07:59.172Z,51.00
2018-07-10T13:10:28.083Z,51.56
2018-07-10T13:12:57.041Z,49.72
2018-07-10T13:15:26.106Z,49.68
2018-07-10T13:17:57.116Z,49.51
2018-07-10T13:20:26.059Z,48.51
2018-07-10T13:22:55.407Z,47.64
2018-07-10T13:25:24.625Z,47.76
2018-07-10T13:27:53.519Z,48.69
2018-07-10T13:30:22.511Z,48.71
2018-07-10T13:32:51.419Z,49.47
2018-07-10T13:35:20.514Z,46.95
2018-07-10T13:37:49.860Z,46.90
2018-07-10T13:40:18.890Z,47.11
2018-07-10T13:42:52.502Z,49.35
2018-07-10T13:45:22.000Z,50.08
2018-07-10T13:47:51.065Z,50.55
2018-07-10T13:50:22.113Z,50.63
2018-07-10T13:52:51.364Z,49.97
2018-07-10T13:55:20.344Z,50.89
2018-07-10T13:57:59.292Z,49.99
2018-07-10T14:00:42.385Z,49.67
2018-07-10T14:03:11.477Z,48.80
2018-07-10T14:05:40.816Z,48.22
2018-07-10T14:08:09.854Z,48.54
2018-07-10T14:10:39.209Z,47.95
2018-07-10T14:13:08.180Z,48.23
2018-07-10T14:15:37.125Z,48.72
2018-07-10T14:18:06.639Z,49.89
2018-07-10T14:20:44.465Z,50.43
2018-07-10T14:23:13.942Z,50.82
2018-07-10T14:25:43.086Z,50.71
2018-07-10T14:28:12.492Z,50.67
2018-07-10T14:30:41.491Z,51.09
2018-07-10T14:33:10.679Z,52.67
2018-07-10T14:35:40.774Z,51.29
2018-07-10T14:38:50.836Z,51.22
2018-07-10T14:41:57.551Z,50.57
2018-07-10T14:45:05.482Z,50.72
2018-07-10T14:51:53.871Z,49.75
2018-07-10T14:54:57.938Z,51.04
2018-07-10T14:58:03.898Z,50.57
2018-07-10T15:00:40.892Z,50.02
2018-07-10T15:03:11.001Z,49.93
2018-07-10T15:05:40.193Z,50.26
2018-07-10T15:08:18.837Z,50.01
2018-07-10T15:10:47.864Z,49.92
2018-07-10T15:13:16.919Z,50.59
2018-07-10T15:15:56.017Z,50.20
2018-07-10T15:18:30.223Z,50.82
2018-07-10T15:20:59.213Z,50.21
2018-07-10T15:23:28.396Z,50.57
2018-07-10T15:25:57.388Z,51.09
2018-07-10T15:28:26.429Z,51.86
2018-07-10T15:30:55.373Z,49.22
2018-07-10T15:33:25.232Z,48.83
2018-07-10T15:35:54.183Z,48.88
2018-07-10T15:38:23.326Z,48.20
2018-07-10T15:40:52.340Z,50.07
2018-07-10T15:43:21.515Z,48.33
2018-07-10T15:45:50.905Z,49.41
2018-07-10T15:48:19.965Z,48.16
2018-07-10T15:50:48.984Z,50.30
2018-07-10T15:53:17.944Z,49.74
2018-07-10T15:55:46.953Z,49.03
2018-07-10T15:58:16.050Z,49.09
2018-07-10T16:00:45.830Z,50.04
2018-07-10T16:03:15.079Z,49.95
2018-07-10T16:05:44.559Z,49.11
2018-07-10T16:08:17.129Z,49.68
2018-07-10T16:10:49.017Z,48.94
2018-07-10T16:13:18.639Z,49.30
2018-07-10T16:15:49.626Z,48.66
2018-07-10T16:18:18.741Z,48.61
2018-07-10T16:20:47.751Z,48.77
2018-07-10T16:23:18.048Z,49.29
2018-07-10T16:25:48.134Z,47.48
2018-07-10T16:28:22.101Z,47.43
2018-07-10T16:30:51.806Z,46.69
2018-07-10T16:33:35.388Z,46.54
2018-07-10T16:36:06.648Z,45.38
2018-07-10T16:38:36.311Z,46.45
2018-07-10T16:41:11.057Z,45.37
2018-07-10T16:43:40.132Z,46.21
2018-07-10T16:46:09.164Z,47.01
2018-07-10T16:48:43.402Z,46.96
2018-07-10T16:51:25.307Z,46.78
2018-07-10T16:53:59.344Z,46.54
2018-07-10T16:56:28.529Z,45.26
2018-07-10T16:58:58.415Z,47.25
2018-07-10T17:01:28.676Z,47.62
2018-07-10T17:03:59.501Z,46.05
2018-07-10T17:06:28.566Z,46.48
2018-07-10T17:08:57.501Z,47.62
2018-07-10T17:11:26.416Z,47.70
2018-07-10T17:13:55.329Z,49.93
2018-07-10T17:16:28.532Z,49.96
2018-07-10T17:18:58.701Z,50.98
2018-07-10T17:21:29.125Z,51.14
2018-07-10T17:24:01.869Z,51.73
2018-07-10T17:26:30.940Z,51.38
2018-07-10T17:29:03.519Z,50.81
2018-07-10T17:31:32.620Z,50.05
2018-07-10T17:34:01.704Z,50.33
2018-07-10T17:36:30.703Z,50.60
2018-07-10T17:39:00.166Z,50.69
2018-07-10T17:41:32.948Z,51.29
2018-07-10T17:44:02.477Z,51.42
2018-07-10T17:46:31.855Z,51.73
2018-07-10T17:49:01.077Z,53.43
2018-07-10T17:51:29.992Z,54.33
2018-07-10T17:53:59.100Z,56.66
2018-07-10T17:56:28.033Z,55.89
2018-07-10T17:58:56.948Z,54.84
2018-07-10T18:01:25.836Z,56.58
2018-07-10T18:03:54.781Z,57.17
2018-07-10T18:06:23.719Z,56.26
2018-07-10T18:08:52.647Z,56.13
2018-07-10T18:11:21.523Z,56.04
2018-07-10T18:13:50.469Z,56.67
2018-07-10T18:16:19.500Z,57.72
2018-07-10T18:18:49.058Z,58.17
2018-07-10T18:21:18.019Z,58.94
2018-07-10T18:23:46.960Z,59.49
2018-07-10T18:26:15.816Z,59.75
2018-07-10T18:28:44.821Z,58.81
2018-07-10T18:31:13.801Z,59.14
2018-07-10T18:33:42.763Z,59.69
2018-07-10T18:36:11.734Z,61.55
2018-07-10T18:38:40.881Z,61.52
2018-07-10T18:41:09.826Z,61.44
2018-07-10T18:43:38.805Z,61.69
2018-07-10T18:46:09.277Z,64.77
2018-07-10T18:48:38.277Z,66.24
2018-07-10T18:51:07.406Z,66.94
2018-07-10T18:53:36.270Z,68.09
2018-07-10T18:56:05.277Z,68.53
2018-07-10T18:58:59.893Z,68.37
2018-07-10T19:01:35.623Z,68.51
2018-07-10T19:04:05.129Z,69.12
2018-07-10T19:06:34.121Z,69.18
2018-07-10T19:09:03.329Z,67.64
2018-07-10T19:11:32.323Z,68.09
2018-07-10T19:14:02.470Z,68.55
2018-07-10T19:16:31.876Z,68.26
2018-07-10T19:19:03.780Z,68.25
2018-07-10T19:21:38.316Z,69.66
2018-07-10T19:24:14.622Z,70.72
2018-07-10T19:26:43.611Z,71.44
2018-07-10T19:29:15.963Z,71.26
2018-07-10T19:31:44.976Z,71.36
2018-07-10T19:34:14.040Z,72.14
2018-07-10T19:36:43.080Z,71.52
2018-07-10T19:39:12.008Z,71.11
2018-07-10T19:41:41.323Z,71.11
2018-07-10T19:44:10.472Z,71.54
2018-07-10T19:46:39.587Z,71.57
2018-07-10T19:49:08.527Z,71.67
2018-07-10T19:51:39.714Z,70.52
2018-07-10T19:54:11.748Z,70.73
2018-07-10T19:56:40.881Z,71.11
2018-07-10T19:59:11.995Z,71.30
2018-07-10T20:01:53.600Z,71.16
2018-07-10T20:04:58.425Z,72.53
2018-07-10T20:07:32.905Z,72.98
2018-07-10T20:11:08.409Z,73.06
2018-07-10T20:13:46.161Z,72.55
2018-07-10T20:16:39.294Z,72.59
2018-07-10T20:19:15.011Z,72.99
2018-07-10T20:23:54.249Z,73.06
2018-07-10T20:26:28.599Z,73.02
2018-07-10T20:29:24.399Z,73.29
2018-07-10T20:32:02.443Z,73.96
2018-07-10T20:34:41.779Z,74.20
2018-07-10T20:37:16.448Z,74.20
2018-07-10T20:39:45.341Z,74.53
2018-07-10T20:42:14.467Z,74.68
2018-07-10T20:44:51.119Z,75.03
2018-07-10T20:47:20.199Z,75.39
2018-07-10T20:49:55.198Z,75.83
2018-07-10T20:52:33.351Z,76.27
2018-07-10T20:55:07.647Z,76.58
2018-07-10T20:57:47.899Z,76.84
2018-07-10T21:00:16.766Z,77.19
2018-07-10T21:02:53.789Z,77.12
2018-07-10T21:05:31.816Z,77.43
2018-07-10T21:08:04.772Z,77.60
2018-07-10T21:10:55.637Z,77.44
2018-07-10T21:14:07.708Z,77.63
2018-07-10T21:16:45.548Z,78.01
2018-07-10T21:19:23.420Z,78.51
2018-07-10T21:22:06.672Z,78.50
2018-07-10T21:24:45.639Z,78.62
2018-07-10T21:27:23.557Z,78.65
2018-07-10T21:30:02.060Z,78.35
2018-07-10T21:32:39.576Z,78.29
2018-07-10T21:35:10.032Z,78.74
2018-07-10T21:37:54.498Z,78.53
2018-07-10T21:40:33.067Z,78.76
2018-07-10T21:43:12.810Z,78.88
2018-07-10T21:45:47.913Z,79.14
2018-07-10T21:48:36.320Z,79.27
2018-07-10T21:51:05.331Z,79.52
2018-07-10T21:53:34.432Z,79.60
2018-07-10T21:56:03.357Z,79.96
2018-07-10T21:58:32.393Z,80.05
2018-07-10T22:02:05.004Z,80.17
2018-07-10T22:04:35.740Z,80.41
2018-07-10T22:07:13.135Z,80.68
2018-07-10T22:09:42.876Z,80.89
2018-07-10T22:12:16.500Z,81.43
2018-07-10T22:14:45.816Z,81.35
2018-07-10T22:17:31.640Z,81.51
2018-07-10T22:20:00.628Z,81.56
2018-07-10T22:22:31.341Z,81.94
2018-07-10T22:25:02.645Z,82.44
2018-07-10T22:27:31.496Z,82.98
2018-07-10T22:30:06.358Z,83.16
2018-07-10T22:32:43.469Z,83.64
2018-07-10T22:35:12.755Z,84.46
2018-07-10T22:37:41.587Z,84.35
2018-07-10T22:40:10.911Z,84.86
2018-07-10T22:42:39.884Z,85.27
2018-07-10T22:45:08.819Z,85.53
2018-07-10T22:47:38.056Z,86.33
2018-07-10T22:50:12.315Z,86.35
2018-07-10T22:52:53.962Z,86.77
2018-07-10T22:55:26.832Z,87.44
2018-07-10T22:57:58.764Z,88.02
2018-07-10T23:00:30.163Z,88.43
2018-07-10T23:02:59.480Z,88.21
2018-07-10T23:05:28.873Z,88.55
2018-07-10T23:07:57.997Z,89.31
2018-07-10T23:10:26.892Z,89.54
2018-07-10T23:12:55.768Z,89.87
2018-07-10T23:15:24.652Z,90.29
2018-07-10T23:17:53.532Z,90.54
2018-07-10T23:20:23.027Z,90.89
2018-07-10T23:22:56.965Z,90.90
2018-07-10T23:25:27.245Z,90.92
2018-07-10T23:28:06.600Z,91.20
2018-07-10T23:30:38.282Z,91.33
2018-07-10T23:33:09.681Z,91.50
2018-07-10T23:35:39.446Z,91.86
2018-07-10T23:38:16.352Z,92.25
2018-07-10T23:40:45.266Z,92.83
2018-07-10T23:43:14.082Z,92.92
2018-07-10T23:45:43.144Z,92.93
2018-07-10T23:48:12.072Z,92.95
2018-07-10T23:50:41.281Z,93.30
2018-07-10T23:53:21.540Z,93.41
2018-07-10T23:55:50.423Z,94.06
2018-07-10T23:58:19.264Z,94.22
